Bay Area Logo

San Jose, CA Condo Real Estate Listings

237 Total Real Estate Listings * Click on table heading to sort
Date Posted Property Type Style Address Price Living Area Lot Size Price/Sq Ft.
2017-03-28 Condo 387 Caribe Way San Jose, CA 95133 $449,000 1,067 sq. ft. 784 sq. ft. $421
2017-03-27 Condo Modern/High Tech 2881 Meridian Ave 218 San Jose, CA 95124 $738,888 1,447 sq. ft. 436 sq. ft. $511
2017-03-27 Condo 6677 Copperwood Cir San Jose, CA 95120 $875,000 1,602 sq. ft. 1,742 sq. ft. $546
2017-03-27 Condo 106 Bob Hansen Ct San Jose, CA 95116 $524,000 1,495 sq. ft. 1,437 sq. ft. $350
2017-03-27 Condo 112 Bob Hansen Ct San Jose, CA 95116 $540,000 1,495 sq. ft. 1,437 sq. ft. $361
2017-03-27 Condo 118 Tierra Encantada Ct San Jose, CA 95116 $534,000 1,495 sq. ft. 1,437 sq. ft. $357
2017-03-27 Condo 124 Bob Hansen Ct 124 San Jose, CA 95116 $500,000 1,249 sq. ft. 1,437 sq. ft. $400
2017-03-27 Condo 1509 Rhinecliff Way San Jose, CA 95126 $759,000 1,470 sq. ft. 1,481 sq. ft. $516
2017-03-27 Condo 175 W Saint James St 203 San Jose, CA 95110 $599,000 955 sq. ft. 305 sq. ft. $627
2017-03-27 Condo 7204 Clarendon St San Jose, CA 95129 $1,199,000 1,542 sq. ft. 741 sq. ft. $778
2017-03-27 Condo 617 La Maison Dr San Jose, CA 95128 $649,000 1,104 sq. ft. 1,437 sq. ft. $588
2017-03-26 Condo 1065 Chagall Way San Jose, CA 95138 $599,888 1,291 sq. ft. 1,307 sq. ft. $465
2017-03-25 Condo 3103 Kenland Dr San Jose, CA 95111 $469,000 1,094 sq. ft. 1,089 sq. ft. $429
2017-03-25 Condo 232 Coy Dr 3 San Jose, CA 95123 $380,000 903 sq. ft. 1,742 sq. ft. $421
2017-03-24 Condo Modern/High Tech 526 Manzana Pl San Jose, CA 95112 $649,888 1,420 sq. ft. 1,089 sq. ft. $458
2017-03-24 Condo 2020 Liberia Cir San Jose, CA 95116 $393,880 1,000 sq. ft. 697 sq. ft. $394
2017-03-24 Condo 552 Almaden Walk Loop San Jose, CA 95125 $749,999 1,654 sq. ft. 14,680 sq. ft. $453
2017-03-24 Condo 385 Shadow Run Dr San Jose, CA 95110 $390,000 621 sq. ft. 784 sq. ft. $628
2017-03-24 Condo 4626 Japonica Way San Jose, CA 95129 $875,000 1,306 sq. ft. 1,307 sq. ft. $670
2017-03-24 Condo Contemporary 1869 Sheri Ann Cir San Jose, CA 95131 $838,000 1,920 sq. ft. 1,220 sq. ft. $436
2017-03-24 Condo 814 Chagall Rd San Jose, CA 95138 $700,000 1,705 sq. ft. 1,699 sq. ft. $411
2017-03-24 Condo 3184 Heather Ridge Dr San Jose, CA 95136 $475,000 1,034 sq. ft. 1,002 sq. ft. $459
2017-03-24 Condo Contemporary 1710 Alder Creek Ct San Jose, CA 95148 $595,000 1,780 sq. ft. 2,091 sq. ft. $334
2017-03-24 Condo 918 Gilchrist Dr 4 San Jose, CA 95133 $389,950 798 sq. ft. 1,481 sq. ft. $489
2017-03-24 Condo 1278 Bouret Dr 2 San Jose, CA 95118 $435,000 903 sq. ft. 7,100 sq. ft. $482
2017-03-24 Condo 2352 La Terrace Cir San Jose, CA 95123 $525,000 1,138 sq. ft. 436 sq. ft. $461
2017-03-24 Condo 1956 Tia Pl San Jose, CA 95131 $519,900 1,102 sq. ft. 1,525 sq. ft. $472
2017-03-23 Condo 1050 Delna Manor Ln San Jose, CA 95128 $625,000 1,194 sq. ft. 1,176 sq. ft. $523
2017-03-23 Condo Contemporary 1771 Braddock Ct San Jose, CA 95125 $559,000 841 sq. ft. 1,045 sq. ft. $665
2017-03-23 Condo 88 N Jackson Ave 113 San Jose, CA 95116 $450,000 1,056 sq. ft. 1,045 sq. ft. $426
2017-03-23 Condo 144 3rd St San Jose, CA 95112 $519,000 998 sq. ft. 871 sq. ft. $520
2017-03-23 Condo 1657 Parkview Green Cir San Jose, CA 95131 $619,950 940 sq. ft. 1,742 sq. ft. $660
2017-03-23 Condo 1203 Westbury Dr San Jose, CA 95131 $880,000 1,573 sq. ft. 2,047 sq. ft. $559
2017-03-23 Condo 141 S 4th St San Jose, CA 95112 $665,000 1,458 sq. ft. 436 sq. ft. $456
2017-03-23 Condo 430 N 1st St 107 San Jose, CA 95112 $575,000 1,071 sq. ft. 436 sq. ft. $537
2017-03-23 Condo 363 Kenbrook Cir San Jose, CA 95111 $425,000 880 sq. ft. 915 sq. ft. $483
2017-03-23 Condo 4535 Huntington Ln San Jose, CA 95136 $858,990 2,009 sq. ft. 0 sq. ft. $428
2017-03-23 Condo 4531 Huntington Ln San Jose, CA 95136 $726,990 1,376 sq. ft. 0 sq. ft. $528
2017-03-23 Condo Modern/High Tech 175 W Saint James St 1406 San Jose, CA 95110 $749,999 1,190 sq. ft. 305 sq. ft. $630
2017-03-23 Condo 4545 Huntington Ln San Jose, CA 95136 $851,990 1,990 sq. ft. 0 sq. ft. $428
2017-03-23 Condo 1059 Foxchase Dr San Jose, CA 95123 $575,000 1,320 sq. ft. 436 sq. ft. $436
2017-03-23 Condo 549 Giuffrida Ave A San Jose, CA 95123 $524,900 1,420 sq. ft. 1,176 sq. ft. $370
2017-03-23 Condo 601 Adeline Ave San Jose, CA 95136 $760,000 1,750 sq. ft. 1,525 sq. ft. $434
2017-03-22 Condo 5630 #4 Allen Ave 4 San Jose, CA 95123 $410,000 798 sq. ft. $514
2017-03-22 Condo 6082 Calle De Amor San Jose, CA 95124 $860,000 2,235 sq. ft. 2,309 sq. ft. $385
2017-03-22 Condo 595 Crystalberry Ter San Jose, CA 95129 $1,020,000 1,408 sq. ft. 1,394 sq. ft. $724
2017-03-22 Condo Traditional 4873 Scarletwood Ter San Jose, CA 95129 $978,000 1,348 sq. ft. 1,350 sq. ft. $726
2017-03-22 Condo Contemporary 1045 Sundrop Ln San Jose, CA 95133 $727,000 1,129 sq. ft. 436 sq. ft. $644
2017-03-22 Condo 3155 Creekside Dr San Jose, CA 95132 $525,000 900 sq. ft. 1,742 sq. ft. $583
2017-03-22 Condo 1046 N Jackson Ave San Jose, CA 95133 $699,900 1,129 sq. ft. 436 sq. ft. $620
2017-03-22 Condo Contemporary 3354 Shadow Park Pl San Jose, CA 95121 $399,000 888 sq. ft. $449
2017-03-22 Condo 5814 Randleswood Ct San Jose, CA 95129 $1,098,000 978 sq. ft. 2,614 sq. ft. $1,123
2017-03-22 Condo 2292 Warfield Way B San Jose, CA 95122 $419,000 885 sq. ft. 1,002 sq. ft. $473
2017-03-21 Condo 1018 Yarwood Ct San Jose, CA 95128 $509,000 922 sq. ft. 1,960 sq. ft. $552
2017-03-21 Condo 1547 Desdemona Ct San Jose, CA 95121 $499,000 1,176 sq. ft. 871 sq. ft. $424
2017-03-21 Condo Contemporary 1249 Charise Ct San Jose, CA 95120 $749,000 1,155 sq. ft. 4,008 sq. ft. $648
2017-03-21 Condo Contemporary 5521 Sean Cir 80 San Jose, CA 95123 $520,000 1,245 sq. ft. 3,615 sq. ft. $418
2017-03-21 Condo 2670 Villa Cortona Way San Jose, CA 95125 $779,000 1,963 sq. ft. 1,263 sq. ft. $397
2017-03-21 Condo Mediterranean 1310 Saddle Rack St 344 San Jose, CA 95126 $599,000 1,108 sq. ft. 1,089 sq. ft. $541
2017-03-20 Condo Contemporary 3128 Loma Verde Dr 116 San Jose, CA 95117 $400,000 544 sq. ft. 261 sq. ft. $735
2017-03-20 Condo 279 Tradewinds Dr 5 San Jose, CA 95123 $395,000 959 sq. ft. 2,831 sq. ft. $412
2017-03-20 Condo Modern/High Tech 46 W Julian St 527 San Jose, CA 95110 $765,000 1,563 sq. ft. 436 sq. ft. $489
2017-03-20 Condo 1657 Prime Pl 5 San Jose, CA 95124 $818,000 1,535 sq. ft. 1,176 sq. ft. $533
2017-03-20 Condo Contemporary 1565 Whiterock Cir San Jose, CA 95125 $999,950 1,954 sq. ft. 2,134 sq. ft. $512
2017-03-19 Condo Contemporary 277 Esfahan Ct San Jose, CA 95111 $715,000 1,734 sq. ft. 1,568 sq. ft. $412
2017-03-19 Condo 901 Monarch Cir San Jose, CA 95138 $589,000 1,257 sq. ft. 1,263 sq. ft. $469
2017-03-17 Condo Traditional 57 Cherry Ridge Ct San Jose, CA 95136 $475,000 986 sq. ft. $482
2017-03-17 Condo Contemporary 350 Reading Pl 104 San Jose, CA 95123 $831,665 2,112 sq. ft. $394
2017-03-17 Condo Contemporary 129 Ellicott Loop 69 San Jose, CA 95123 $740,510 1,531 sq. ft. $484
2017-03-17 Condo 1489 De Rose Way 206b San Jose, CA 95126 $575,000 1,224 sq. ft. 610 sq. ft. $470
2017-03-17 Condo 932 Alta Mar Ter San Jose, CA 95126 $730,000 1,667 sq. ft. 1,133 sq. ft. $438
2017-03-17 Condo Contemporary; Mediterranean 2721 Forino Ln 6 San Jose, CA 95111 $620,745 1,303 sq. ft. $476
2017-03-17 Condo 380 S 11th St San Jose, CA 95112 $499,900 1,050 sq. ft. 1,307 sq. ft. $476
2017-03-17 Condo 2257 Sun Glory Ln A San Jose, CA 95124 $599,000 974 sq. ft. 1,133 sq. ft. $615
2017-03-17 Condo 4807 Capay Dr 4 San Jose, CA 95118 $420,000 798 sq. ft. 7,187 sq. ft. $526
2017-03-17 Condo 8797 Grape Wagon Cir San Jose, CA 95135 $775,000 1,582 sq. ft. 2,309 sq. ft. $490
2017-03-17 Condo 2995 Rose Ave San Jose, CA 95127 $449,000 1,092 sq. ft. 3,398 sq. ft. $411
2017-03-16 Condo 535 Giuffrida Ave B San Jose, CA 95123 $518,888 1,333 sq. ft. 2,962 sq. ft. $389
2017-03-16 Condo Traditional 108 Balbach St San Jose, CA 95110 $758,000 1,675 sq. ft. 1,307 sq. ft. $453
2017-03-16 Condo 3113 La Terrace Cir San Jose, CA 95123 $515,000 995 sq. ft. $518
2017-03-16 Condo Contemporary 7096 Indian Wells Ct San Jose, CA 95139 $599,999 1,656 sq. ft. 2,134 sq. ft. $362
2017-03-16 Condo 3061 Elk Ridge Ct San Jose, CA 95136 $599,900 1,250 sq. ft. $480
2017-03-16 Condo 1828 Camino Leonor San Jose, CA 95131 $729,888 1,422 sq. ft. 1,220 sq. ft. $513
2017-03-16 Condo 1002 Niguel Ln San Jose, CA 95138 $659,950 1,439 sq. ft. 1,437 sq. ft. $459
2017-03-16 Condo 357 Vista Roma Way San Jose, CA 95136 $699,900 1,680 sq. ft. 3,049 sq. ft. $417
2017-03-16 Condo 3819 7 Trees Blvd 308 San Jose, CA 95111 $388,888 999 sq. ft. 1,002 sq. ft. $389
2017-03-16 Condo 163 Yasou Demas Way San Jose, CA 95119 $510,000 859 sq. ft. 1,002 sq. ft. $594
2017-03-16 Condo 1109 Mallard Ridge Cir San Jose, CA 95120 $1,349,000 2,532 sq. ft. 4,051 sq. ft. $533
2017-03-16 Condo 2412 Sequester Ct San Jose, CA 95133 $379,000 778 sq. ft. $487
2017-03-16 Condo 2881 Meridian Ave 231 San Jose, CA 95124 $568,888 880 sq. ft. 958 sq. ft. $646
2017-03-16 Condo 2465 Sequester Ct San Jose, CA 95133 $399,888 890 sq. ft. $449
2017-03-15 Condo 125 Hobson St 2a San Jose, CA 95110 $415,000 681 sq. ft. 871 sq. ft. $609
2017-03-15 Condo 228 Siderno Ct San Jose, CA 95111 $648,888 1,457 sq. ft. 915 sq. ft. $445
2017-03-15 Condo 540 Adeline Ave San Jose, CA 95136 $759,000 1,810 sq. ft. 1,699 sq. ft. $419
2017-03-15 Condo 5521 Cribari Cir San Jose, CA 95135 $524,000 1,348 sq. ft. 1,873 sq. ft. $389
2017-03-15 Condo Traditional 179 Silcreek Dr San Jose, CA 95116 $448,000 1,318 sq. ft. 3,093 sq. ft. $340
2017-03-15 Condo 7620 Stoneshire Ct San Jose, CA 95135 $743,000 1,572 sq. ft. 2,091 sq. ft. $473
2017-03-14 Condo 173 Monte Verano Ct San Jose, CA 95116 $320,000 597 sq. ft. 1,830 sq. ft. $536
2017-03-14 Condo 578 Marble Arch Avenue San Jose, CA 95136 $690,000 1,690 sq. ft. 1,699 sq. ft. $408
2017-03-14 Condo 5684 Playa Del Rey 1 San Jose, CA 95123 $418,000 810 sq. ft. 7,928 sq. ft. $516
2017-03-14 Condo 499 White Chapel Ave San Jose, CA 95136 $745,000 1,894 sq. ft. 1,917 sq. ft. $393
2017-03-14 Condo Traditional 748 Paula Ct San Jose, CA 95126 $599,000 1,127 sq. ft. 1,437 sq. ft. $532
2017-03-14 Condo 2881 Meridian Ave 202 San Jose, CA 95124 $730,000 1,383 sq. ft. 436 sq. ft. $528
2017-03-14 Condo 8502 Grenache Ct San Jose, CA 95135 $640,000 1,571 sq. ft. 3,223 sq. ft. $407
2017-03-14 Condo 1072 Summerplace Dr San Jose, CA 95122 $399,999 961 sq. ft. $416
2017-03-13 Condo 969 Bellhurst Ave San Jose, CA 95122 $299,999 986 sq. ft. 784 sq. ft. $304
2017-03-13 Condo Mediterranean 2125 Winepol Loop San Jose, CA 95125 $675,999 1,480 sq. ft. 828 sq. ft. $457
2017-03-13 Condo 2631 Senter Creek Ct San Jose, CA 95111 $424,900 1,146 sq. ft. 436 sq. ft. $371
2017-03-13 Condo Contemporary 2631 Senter Creek Ct San Jose, CA 95111 $424,900 1,146 sq. ft. 436 sq. ft. $371
2017-03-13 Condo 4691 Albany Cir 107 San Jose, CA 95129 $769,900 1,229 sq. ft. 1,786 sq. ft. $626
2017-03-13 Condo 829 N Capitol Ave 2 San Jose, CA 95133 $415,000 903 sq. ft. 1,481 sq. ft. $460
2017-03-13 Condo 782 Blossom Hill Rd 2 San Jose, CA 95123 $389,000 903 sq. ft. 7,928 sq. ft. $431
2017-03-13 Condo 294 Tradewinds Dr 6 San Jose, CA 95123 $399,000 959 sq. ft. $416
2017-03-10 Condo 1135 Willow Village Sq San Jose, CA 95125 $799,950 1,346 sq. ft. 1,263 sq. ft. $594
2017-03-10 Condo Modern/High Tech 175 W Saint James St 110 San Jose, CA 95110 $599,000 796 sq. ft. 305 sq. ft. $753
2017-03-10 Condo Contemporary 350 N 2nd St 331 San Jose, CA 95112 $589,000 1,178 sq. ft. 1,176 sq. ft. $500
2017-03-10 Condo 3001 Ruby Ave San Jose, CA 95135 $1,090,000 2,447 sq. ft. 2,439 sq. ft. $445
2017-03-09 Condo Contemporary 1057 Foxglove Pl 404 San Jose, CA 95131 $1,050,000 2,147 sq. ft. 436 sq. ft. $489
2017-03-09 Condo 83 Monte Verano Ct San Jose, CA 95116 $310,000 597 sq. ft. 1,830 sq. ft. $519
2017-03-09 Condo 2130 Lindsey Ct San Jose, CA 95125 $625,000 1,144 sq. ft. 1,568 sq. ft. $546
2017-03-09 Condo Contemporary 1293 Tea Rose Cir San Jose, CA 95131 $638,000 1,157 sq. ft. 436 sq. ft. $551
2017-03-09 Condo 5495 Judith St 2 San Jose, CA 95123 $379,000 903 sq. ft. 1,742 sq. ft. $420
2017-03-09 Condo 1310 La Terrace Cir San Jose, CA 95123 $549,500 995 sq. ft. $552
2017-03-09 Condo Contemporary 1128 Trevino Ter San Jose, CA 95120 $968,000 1,998 sq. ft. 3,006 sq. ft. $484
2017-03-09 Condo 4671 Albany Cir 106 San Jose, CA 95129 $529,888 813 sq. ft. 1,786 sq. ft. $652
2017-03-09 Condo 3180 Heather Ridge Dr San Jose, CA 95136 $529,000 1,067 sq. ft. 1,089 sq. ft. $496
2017-03-08 Condo 175 W Saint James St 1308 San Jose, CA 95110 $718,888 1,103 sq. ft. 305 sq. ft. $652
2017-03-08 Condo 5138 Graves Ave San Jose, CA 95129 $995,000 1,350 sq. ft. 1,002 sq. ft. $737
2017-03-08 Condo 4545 Caraway Ct San Jose, CA 95129 $945,000 1,230 sq. ft. 1,263 sq. ft. $768
2017-03-08 Condo 1455 Golden Meadow Sq San Jose, CA 95117 $789,000 1,220 sq. ft. 1,263 sq. ft. $647
2017-03-07 Condo Luxury; Mediterranean; Modern/High Tech 356 Santana Row 313 San Jose, CA 95128 $2,258,000 2,288 sq. ft. 436 sq. ft. $987
2017-03-07 Condo 350 N 2nd St 142 San Jose, CA 95112 $599,000 1,238 sq. ft. 1,220 sq. ft. $484
2017-03-06 Condo 75 Deer Run Cir San Jose, CA 95136 $589,900 1,452 sq. ft. 0 sq. ft. $406
2017-03-06 Condo Ranch 8340 Riesling Way San Jose, CA 95135 $630,000 1,497 sq. ft. 2,657 sq. ft. $421
2017-03-06 Condo 7243 Via Mimosa San Jose, CA 95135 $630,000 1,588 sq. ft. 3,180 sq. ft. $397
2017-03-06 Condo 100 Bob Hansen Ct San Jose, CA 95116 $524,000 1,532 sq. ft. 1,655 sq. ft. $342
2017-03-06 Condo 88 Ryland Park Way San Jose, CA 95110 $749,000 1,293 sq. ft. 958 sq. ft. $579
2017-03-06 Condo 1690 Cedarcreek Dr San Jose, CA 95121 $549,900 1,360 sq. ft. 1,394 sq. ft. $404
2017-03-06 Condo 88 Bush St 4144 San Jose, CA 95126 $799,999 1,275 sq. ft. 479 sq. ft. $627
2017-03-04 Condo 4685 Albany Cir 114 San Jose, CA 95129 $525,000 813 sq. ft. 1,786 sq. ft. $646
2017-03-04 Condo 1343 Shawn Dr 2 San Jose, CA 95118 $434,999 903 sq. ft. 7,100 sq. ft. $482
2017-03-02 Condo 875 Cherry Creek Cir San Jose, CA 95126 $599,000 1,058 sq. ft. 436 sq. ft. $566
2017-03-02 Condo 163 Cahill Park Dr San Jose, CA 95126 $799,000 1,581 sq. ft. 1,568 sq. ft. $505
2017-03-02 Condo 364 Maeve Ct San Jose, CA 95136 $625,000 1,168 sq. ft. 1,176 sq. ft. $535
2017-03-02 Condo Modern/High Tech 88 E San Fernando St 1403 San Jose, CA 95113 $898,000 1,347 sq. ft. 261 sq. ft. $667
2017-03-02 Condo Mediterranean 5334 Silver Point Way San Jose, CA 95138 $868,000 1,793 sq. ft. 436 sq. ft. $484
2017-03-02 Condo Contemporary 800 N 8th St 205 San Jose, CA 95112 $659,950 1,173 sq. ft. 436 sq. ft. $563
2017-03-02 Condo 38 N Almaden Blvd 1823 San Jose, CA 95110 $1,450,000 1,502 sq. ft. 174 sq. ft. $965
2017-03-02 Condo Modern/High Tech 38 N Almaden Blvd 1809 San Jose, CA 95110 $655,000 852 sq. ft. 174 sq. ft. $769
2017-03-02 Condo Mediterranean 1433 Allegado Aly San Jose, CA 95128 $725,000 1,860 sq. ft. 1,612 sq. ft. $390
2017-03-02 Condo Traditional 491 Carpentier Way San Jose, CA 95111 $435,000 436 sq. ft.
2017-03-02 Condo 356 Santana Row 300 San Jose, CA 95128 $2,100,000 2,368 sq. ft. 436 sq. ft. $887
2017-03-02 Condo 8082 Winery Ct San Jose, CA 95135 $799,000 1,803 sq. ft. $443
2017-03-02 Condo Traditional 4756 Clear River Ct San Jose, CA 95136 $599,000 1,496 sq. ft. 1,699 sq. ft. $400
2017-03-02 Condo 5332 Monterey Hwy 5 San Jose, CA 95111 $290,000 700 sq. ft. $414
2017-03-01 Condo 5066 Sutter Creek Cir San Jose, CA 95136 $425,000 816 sq. ft. $521
2017-02-28 Condo Luxury; Modern/High Tech 38 N Almaden Blvd 401 San Jose, CA 95110 $640,000 998 sq. ft. 174 sq. ft. $641
2017-02-28 Condo Modern/High Tech 46 W Julian St 419 San Jose, CA 95110 $765,000 1,573 sq. ft. 436 sq. ft. $486
2017-02-28 Condo 2320 Mossdale Way San Jose, CA 95133 $580,000 1,050 sq. ft. 1,525 sq. ft. $552
2017-02-28 Condo 295 Tradewinds Dr 101 San Jose, CA 95123 $569,000 1,449 sq. ft. 436 sq. ft. $393
2017-02-27 Condo 583 Shadow Dance Dr San Jose, CA 95110 $460,000 871 sq. ft. 1,089 sq. ft. $528
2017-02-27 Condo 72 Rancho Dr H San Jose, CA 95111 $369,900 918 sq. ft. 1,742 sq. ft. $403
2017-02-26 Condo 2528 Yerba Hills Ct San Jose, CA 95121 $580,000 843 sq. ft. 1,220 sq. ft. $688
2017-02-25 Condo 3318 Lake Albano Cir San Jose, CA 95135 $667,000 1,457 sq. ft. 1,873 sq. ft. $458
2017-02-25 Condo Ranch 1357 Shelby Creek Ct San Jose, CA 95120 $848,000 1,630 sq. ft. 3,572 sq. ft. $520
2017-02-25 Condo 5524 Sean Cir 49 San Jose, CA 95123 $459,888 1,060 sq. ft. 3,615 sq. ft. $434
2017-02-24 Condo Spanish 3358 Bolsena Ct San Jose, CA 95135 $635,000 1,184 sq. ft. 1,612 sq. ft. $536
2017-02-24 Condo 333 Santana Row 218 San Jose, CA 95128 $850,000 1,250 sq. ft. 436 sq. ft. $680
2017-02-24 Condo 5336 Monterey Rd 6 San Jose, CA 95111 $450,000 950 sq. ft. 1,176 sq. ft. $474
2017-02-23 Condo 3502 La Terrace Cir San Jose, CA 95123 $525,000 995 sq. ft. $528
2017-02-23 Condo 350 N 2nd St 143 San Jose, CA 95112 $685,000 1,694 sq. ft. 1,699 sq. ft. $404
2017-02-23 Condo Contemporary 3098 Empoli St 4 San Jose, CA 95136 $869,000 1,995 sq. ft. 2,222 sq. ft. $436
2017-02-23 Condo 8018 Pinot Noir Ct San Jose, CA 95135 $395,000 811 sq. ft. 915 sq. ft. $487
2017-02-22 Condo 108 Poas Cir San Jose, CA 95116 $399,000 1,000 sq. ft. 697 sq. ft. $399
2017-02-22 Condo Modern/High Tech 88 E San Fernando St 906 San Jose, CA 95113 $520,000 673 sq. ft. 261 sq. ft. $773
2017-02-22 Condo 3550 Alden Way 17 San Jose, CA 95117 $499,800 986 sq. ft. 523 sq. ft. $507
2017-02-22 Condo Mediterranean 1310 Saddle Rack Street San Jose, CA 95126 $568,000 1,175 sq. ft. 1,307 sq. ft. $483
2017-02-22 Condo 490 Auburn Way 5 San Jose, CA 95129 $549,950 1,099 sq. ft. 566 sq. ft. $500
2017-02-20 Condo 6949 Rodling Dr B San Jose, CA 95138 $568,888 1,093 sq. ft. 610 sq. ft. $520
2017-02-16 Condo 613 Boardwalk Way San Jose, CA 95112 $705,000 1,224 sq. ft. 1,220 sq. ft. $576
2017-02-15 Condo 7794 Prestwick Cir San Jose, CA 95135 $597,000 1,490 sq. ft. 436 sq. ft. $401
2017-02-15 Condo 334 Santana Row 229 San Jose, CA 95128 $680,000 736 sq. ft. 436 sq. ft. $924
2017-02-14 Condo Chiechi Ave San Jose, CA 95126 $410,000 912 sq. ft. $450
2017-02-14 Condo 38 N Almaden Blvd 720 San Jose, CA 95110 $950,000 1,296 sq. ft. 174 sq. ft. $733
2017-02-14 Condo 4029 Gold Run San Jose, CA 95136 $588,000 1,272 sq. ft. 1,437 sq. ft. $462
2017-02-13 Condo 240 Stonegate Cir 240 San Jose, CA 95110 $329,000 468 sq. ft. 653 sq. ft. $703
2017-02-12 Condo 2647 Faust Ct San Jose, CA 95121 $529,990 1,474 sq. ft. 1,002 sq. ft. $360
2017-02-11 Condo 1430 Crucero Dr C San Jose, CA 95122 $398,000 1,150 sq. ft. 610 sq. ft. $346
2017-02-11 Condo 952 S 11th St 236 San Jose, CA 95112 $499,000 1,241 sq. ft. 1,481 sq. ft. $402
2017-02-10 Condo Contemporary 109 Ellicott Loop 66 San Jose, CA 95123 $919,255 2,826 sq. ft. $325
2017-02-10 Condo Contemporary 119 Hudson Pl 63 San Jose, CA 95123 $750,510 1,739 sq. ft. $432
2017-02-10 Condo Contemporary 111 Hudson Pl 64 San Jose, CA 95123 $695,510 1,557 sq. ft. $447
2017-02-09 Condo 85 Bassett St San Jose, CA 95110 $825,000 2,008 sq. ft. 1,525 sq. ft. $411
2017-02-09 Condo Contemporary; Modern/High Tech 38 N Almaden Blvd 1119 San Jose, CA 95110 $945,000 1,220 sq. ft. 174 sq. ft. $775
2017-02-09 Condo 333 Santana Row 330 San Jose, CA 95128 $1,299,000 1,513 sq. ft. 436 sq. ft. $859
2017-02-07 Condo Contemporary 796 N 10th St 3 San Jose, CA 95112 $688,888 1,269 sq. ft. 915 sq. ft. $543
2017-02-07 Condo Contemporary 46 W Julian St 316 San Jose, CA 95110 $688,000 1,647 sq. ft. $418
2017-02-06 Condo 1952 Tia Pl San Jose, CA 95131 $590,000 994 sq. ft. 1,960 sq. ft. $594
2017-02-06 Condo 138 Kenbrook Cir San Jose, CA 95111 $359,000 950 sq. ft. 1,307 sq. ft. $378
2017-02-04 Condo Contemporary 2096 Mendocino Ln San Jose, CA 95124 $869,000 1,396 sq. ft. 1,699 sq. ft. $622
2017-02-03 Condo Contemporary 1414 Mcquesten Dr B San Jose, CA 95122 $399,000 1,150 sq. ft. 610 sq. ft. $347
2017-02-03 Condo 3398 Landess Ave A San Jose, CA 95132 $549,000 1,130 sq. ft. 828 sq. ft. $486
2017-02-03 Condo Contemporary 778 Cedarville Ln San Jose, CA 95133 $789,999 1,809 sq. ft. 1,830 sq. ft. $437
2017-02-03 Condo 307 Tradewinds Dr 11 San Jose, CA 95123 $449,888 992 sq. ft. 2,831 sq. ft. $454
2017-02-02 Condo 2925 Florence Ave 25 San Jose, CA 95127 $415,000 960 sq. ft. $432
2017-02-01 Condo 333 Santana Row 326 San Jose, CA 95128 $1,199,000 1,513 sq. ft. 436 sq. ft. $792
2017-02-01 Condo 5023 Cribari Vale San Jose, CA 95135 $393,500 1,223 sq. ft. 1,655 sq. ft. $322
2017-01-30 Condo A-Frame 169 Truckee Ln San Jose, CA 95136 $580,000 1,334 sq. ft. 1,437 sq. ft. $435
2017-01-28 Condo Traditional 1701 Flickinger Ct San Jose, CA 95131 $489,950 852 sq. ft. 871 sq. ft. $575
2017-01-26 Condo Contemporary 1504 Turandot Ct San Jose, CA 95121 $399,950 988 sq. ft. 741 sq. ft. $405
2017-01-26 Condo 809 Auzerais Ave 133 San Jose, CA 95126 $498,000 824 sq. ft. 610 sq. ft. $604
2017-01-26 Condo Contemporary 102 Ellicott Loop 123 San Jose, CA 95123 $837,317 2,292 sq. ft. $365
2017-01-24 Condo 7356 Via Laguna San Jose, CA 95135 $820,000 1,781 sq. ft. 2,614 sq. ft. $460
2017-01-24 Condo Contemporary 2475 Sequester Ct San Jose, CA 95133 $375,000 829 sq. ft. $452
2017-01-20 Condo 7213 Via Amparo San Jose, CA 95135 $688,000 1,815 sq. ft. 2,309 sq. ft. $379
2017-01-20 Condo 7772 Beltane Dr San Jose, CA 95135 $608,880 1,490 sq. ft. 436 sq. ft. $409
2017-01-18 Condo 7246 Via Mimosa San Jose, CA 95135 $595,000 1,386 sq. ft. 2,701 sq. ft. $429
2017-01-18 Condo 6203 Gerdts Dr San Jose, CA 95135 $589,500 1,526 sq. ft. 2,831 sq. ft. $386
2017-01-15 Condo Contemporary 2925 Florence Ave 29 San Jose, CA 95127 $385,000 874 sq. ft. 871 sq. ft. $440
2017-01-12 Condo Mediterranean 612 Harrison Ter San Jose, CA 95125 $804,988 1,800 sq. ft. 3,006 sq. ft. $447
2017-01-07 Condo 1002 Foxglove Pl San Jose, CA 95131 $1,099,000 1,872 sq. ft. 436 sq. ft. $587
2017-01-04 Condo 8423 Chenin Blanc Ln San Jose, CA 95135 $735,000 1,803 sq. ft. 3,354 sq. ft. $408
2017-01-02 Condo Traditional 175 W James St. 305 San Jose, CA 95110 $580,000 904 sq. ft. $642
2016-12-16 Condo 1130 Willow Village Sq San Jose, CA 95125 $799,950 1,346 sq. ft. 1,350 sq. ft. $594
2016-11-25 Condo 3258 Shadow Park Pl 3258 San Jose, CA 95121 $408,000 911 sq. ft. $448
2016-11-16 Condo 1091 Indian Summer Ct San Jose, CA 95122 $449,000 1,056 sq. ft. 566 sq. ft. $425
2016-11-15 Condo 5455 Eagles Ln 2 San Jose, CA 95123 $385,000 903 sq. ft. 1,742 sq. ft. $426
2016-10-28 Condo Contemporary 2134 Luz Ave San Jose, CA 95116 $449,000 1,192 sq. ft. 1,176 sq. ft. $377
2016-10-27 Condo 5569 Cribari Cir San Jose, CA 95135 $399,988 1,223 sq. ft. 1,655 sq. ft. $327
2016-10-22 Condo Contemporary 1236 Permata Court San Jose, CA 95116 $448,000 1,016 sq. ft. 1,307 sq. ft. $441
2016-10-21 Condo 2492 Golzio Ct 4 San Jose, CA 95133 $399,000 798 sq. ft. 1,481 sq. ft. $500
2016-10-21 Condo 8634 American Oak Dr San Jose, CA 95135 $815,000 1,675 sq. ft. 2,222 sq. ft. $487
2016-10-02 Condo 5065 Cribari Bluffs San Jose, CA 95135 $395,000 1,223 sq. ft. 1,655 sq. ft. $323
2016-03-30 Condo Contemporary 527 Bellezza Place San Jose, CA 95128 $1,115,000 1,812 sq. ft. $615
2015-11-11 Condo Contemporary 1375 Lick Ave 220 San Jose, CA 95110 $360,000 733 sq. ft. 1,307 sq. ft. $491
2015-08-25 Condo 4721 Little River Ct San Jose, CA 95136 $579,000 1,760 sq. ft. 1,742 sq. ft. $329
2015-05-22 Condo Mediterranean 6115 Country Club Pkwy San Jose, CA 95138 $998,000 1,803 sq. ft. 1,350 sq. ft. $554